Abraham Lincoln — WDC2286 — position and weather

sailwx.info

Track history (hours):
 
Tides and Currents Weather Stations Pressure Air Temp Water Temp Dewpoint Dewpoint Depression Visibility Wind Speed Wind Dir Waves Ship Positions

Abraham Lincoln

Owner: PORT IMPERIAL FERRY CORP, WEEHAWKEN, NJ. More information available from US FCC via Universal Licensing System and Coast Guard Vessel Documentation Center.

Last reported at 2017-Nov-19 17:40 UTC. Time now 2017-Nov-22 15:07 UTC.
Position N 40°46' W 074°01'.

Type: Passenger vessel. MMSI: 366990620.

Date/timePositionNaut miles runAvg speedWind from/ knotsBaromVisibWave heightAir tempDewpointWater temp
2017-Nov-19 17:40N 40°46' W 074°01'1 4.9
2017-Nov-19 17:30N 40°46' W 074°00'5 9.2
2017-Nov-19 17:00N 40°41' W 074°02'5 9.4
2017-Nov-19 16:30N 40°46' W 074°00'0 0.1
2017-Nov-19 16:00N 40°46' W 074°00'1 1.5
2017-Nov-19 15:30N 40°46' W 074°01'0 0.0
2017-Nov-18 22:47N 40°46' W 074°01'1 3.1
2017-Nov-18 22:30N 40°45' W 074°01'4 7.6
2017-Nov-18 22:00N 40°42' W 074°01'0 0.6
2017-Nov-18 21:31N 40°42' W 074°01'4 7.8
2017-Nov-18 21:00N 40°46' W 074°00'2 3.3
2017-Nov-18 20:30N 40°44' W 074°01'2 4.5
2017-Nov-18 20:00N 40°42' W 074°00'1 1.6
2017-Nov-18 19:30N 40°42' W 074°02'4 7.2
2017-Nov-18 19:00N 40°46' W 074°00'4 8.0
2017-Nov-18 18:30N 40°42' W 074°02'2 3.8
2017-Nov-18 18:00N 40°42' W 073°60'1 2.5
2017-Nov-18 17:30N 40°43' W 074°01'3 5.4
2017-Nov-18 17:00N 40°46' W 074°00'1 2.7
2017-Nov-18 16:30N 40°44' W 074°01'2 4.8
2017-Nov-18 16:00N 40°42' W 073°60'1 2.9
2017-Nov-18 15:30N 40°43' W 074°01'3 5.9
2017-Nov-18 15:00N 40°46' W 074°00'1 1.6
2017-Nov-18 14:30N 40°46' W 074°01'0 0.0
2017-Nov-17 23:33N 40°46' W 074°01'0 0.0
2017-Nov-17 23:30N 40°46' W 074°01'3 6.8
2017-Nov-17 23:01N 40°43' W 074°01'2 3.5
2017-Nov-17 22:30N 40°45' W 074°01'3 6.0
2017-Nov-17 22:00N 40°42' W 074°01'0 1.0
2017-Nov-17 21:30N 40°42' W 074°01'3 6.9
2017-Nov-17 21:00N 40°46' W 074°00'1 2.4
2017-Nov-17 20:30N 40°45' W 074°01'3 6.5
2017-Nov-17 20:00N 40°41' W 074°02'1 2.8
2017-Nov-17 19:31N 40°43' W 074°01'3 5.9
2017-Nov-17 19:00N 40°46' W 074°00'2 3.7
2017-Nov-17 18:30N 40°44' W 074°01'2 4.1
2017-Nov-17 18:00N 40°42' W 074°00'1 2.2
2017-Nov-17 17:30N 40°43' W 074°01'3 5.6
2017-Nov-17 17:00N 40°46' W 074°00'1 1.5
2017-Nov-17 16:30N 40°45' W 074°01'3 6.8
2017-Nov-17 16:00N 40°42' W 074°01'2 3.7
2017-Nov-17 15:30N 40°44' W 074°01'2 4.2
2017-Nov-17 15:00N 40°46' W 074°00'1 2.0
2017-Nov-17 14:30N 40°47' W 074°01'1 1.9
2017-Nov-17 14:00N 40°46' W 074°00'1 1.9
2017-Nov-17 13:30N 40°47' W 074°01'1 2.0
2017-Nov-17 13:00N 40°46' W 074°00'1 1.9
2017-Nov-17 12:30N 40°47' W 074°01'1 2.0
2017-Nov-17 12:00N 40°46' W 074°00'0 0.0
2017-Nov-17 11:30N 40°46' W 074°00'1 2.0
2017-Nov-17 11:00N 40°47' W 074°01'0 0.0
2017-Nov-17 00:52N 40°47' W 074°01'0 0.0
2017-Nov-17 00:29N 40°47' W 074°01'1 2.0
2017-Nov-17 00:00N 40°46' W 074°00'1 1.9
2017-Nov-16 23:30N 40°47' W 074°01'1 1.9
2017-Nov-16 23:00N 40°46' W 074°00'1 1.9
2017-Nov-16 22:30N 40°47' W 074°01'1 1.9
2017-Nov-16 22:00N 40°46' W 074°00'1 1.9
2017-Nov-16 21:30N 40°47' W 074°01'0 0.0
2017-Nov-16 14:46N 40°47' W 074°01'0 0.0
2017-Nov-16 14:30N 40°47' W 074°01'1 2.0
2017-Nov-16 14:00N 40°46' W 074°00'1 1.9
2017-Nov-16 13:30N 40°47' W 074°01'1 1.9
2017-Nov-16 13:00N 40°46' W 074°00'1 2.0
2017-Nov-16 12:30N 40°47' W 074°01'1 2.0
2017-Nov-16 12:00N 40°46' W 074°00'0 0.0
2017-Nov-16 11:30N 40°46' W 074°00'1 2.0
2017-Nov-16 11:00N 40°47' W 074°01'0 0.0
2017-Nov-16 10:30N 40°47' W 074°01'0 0.0
2017-Nov-16 10:00N 40°47' W 074°01'0 0.0
2017-Nov-16 00:49N 40°47' W 074°01'0 0.0
2017-Nov-16 00:30N 40°47' W 074°01'1 2.0
2017-Nov-16 00:00N 40°46' W 074°00'1 1.9
2017-Nov-15 23:30N 40°47' W 074°01'1 1.9
2017-Nov-15 23:00N 40°46' W 074°00'1 1.9
2017-Nov-15 22:30N 40°47' W 074°01'1 1.9
2017-Nov-15 22:00N 40°46' W 074°00'1 1.9
2017-Nov-15 21:31N 40°47' W 074°01'0 0.0
2017-Nov-15 15:46N 40°47' W 074°01'0 1.3
2017-Nov-15 15:30N 40°46' W 074°01'0 0.0
2017-Nov-15 15:00N 40°46' W 074°01'0 0.7
2017-Nov-15 14:30N 40°47' W 074°01'1 1.9
2017-Nov-15 14:00N 40°46' W 074°00'1 2.0
2017-Nov-15 13:30N 40°47' W 074°01'1 1.9
2017-Nov-15 13:00N 40°46' W 074°00'1 1.9
2017-Nov-15 12:30N 40°47' W 074°01'1 1.9
2017-Nov-15 12:00N 40°46' W 074°00'0 0.1
2017-Nov-15 11:30N 40°46' W 074°00'1 1.9
2017-Nov-15 11:00N 40°47' W 074°01'0 0.0
2017-Nov-15 10:30N 40°47' W 074°01'0 0.0
2017-Nov-15 10:00N 40°47' W 074°01'0 0.0
2017-Nov-15 09:30N 40°47' W 074°01'0 0.0
2017-Nov-15 08:59N 40°47' W 074°01'0 0.0
2017-Nov-15 00:51N 40°47' W 074°01'0 0.0
2017-Nov-15 00:30N 40°47' W 074°01'1 1.9
2017-Nov-15 00:00N 40°46' W 074°00'1 1.9
2017-Nov-14 23:30N 40°47' W 074°01'1 2.0
2017-Nov-14 23:00N 40°46' W 074°00'1 1.9
2017-Nov-14 22:30N 40°47' W 074°01'1 2.0
2017-Nov-14 22:00N 40°46' W 074°00'1 1.9
2017-Nov-14 21:30N 40°47' W 074°01'0 0.0
2017-Nov-14 14:45N 40°47' W 074°01'0 0.0
2017-Nov-14 14:30N 40°47' W 074°01'1 1.9
2017-Nov-14 14:00N 40°46' W 074°00'1 2.0
2017-Nov-14 13:30N 40°47' W 074°01'1 1.9
2017-Nov-14 13:01N 40°46' W 074°00'1 1.9
2017-Nov-14 12:30N 40°47' W 074°01'1 1.9
2017-Nov-14 12:00N 40°46' W 074°00'0 0.0
2017-Nov-14 11:30N 40°46' W 074°00'1 1.9
2017-Nov-14 11:00N 40°47' W 074°01'0 0.0
2017-Nov-14 10:30N 40°47' W 074°01'0 0.0
2017-Nov-14 10:00N 40°47' W 074°01'0 0.0
2017-Nov-14 09:30N 40°47' W 074°01'0 0.0
2017-Nov-14 09:00N 40°47' W 074°01'0 0.0
2017-Nov-14 00:52N 40°47' W 074°01'0 0.0
2017-Nov-14 00:30N 40°47' W 074°01'1 1.9
2017-Nov-14 00:00N 40°46' W 074°00'1 1.9
2017-Nov-13 23:29N 40°47' W 074°01'1 2.0
2017-Nov-13 23:00N 40°46' W 074°00'1 1.9
2017-Nov-13 22:30N 40°47' W 074°01'1 1.9
2017-Nov-13 22:00N 40°46' W 074°00'1 0.0
2017-Nov-12 22:48N 40°46' W 074°01'1 3.3
2017-Nov-12 22:30N 40°45' W 074°01'4 7.2
2017-Nov-12 22:00N 40°42' W 074°01'0 0.4
2017-Nov-12 21:30N 40°42' W 074°01'4 7.6
2017-Nov-12 21:00N 40°46' W 074°00'1 2.8
2017-Nov-12 20:30N 40°44' W 074°01'2 4.5
2017-Nov-12 19:59N 40°42' W 073°60'1 3.0
2017-Nov-12 19:30N 40°43' W 074°01'3 6.0
2017-Nov-12 19:00N 40°46' W 074°00'3 5.9
2017-Nov-12 18:31N 40°43' W 074°02'2 3.0
2017-Nov-12 18:01N 40°42' W 073°60'1 2.4
2017-Nov-12 17:30N 40°43' W 074°01'3 5.4
2017-Nov-12 17:00N 40°46' W 074°00'4 7.4
2017-Nov-12 16:30N 40°42' W 074°02'2 3.0
2017-Nov-12 16:00N 40°42' W 073°60'1 2.5
2017-Nov-12 15:30N 40°43' W 074°01'3 5.3
2017-Nov-12 15:00N 40°46' W 074°00'1 1.5
2017-Nov-12 14:29N 40°46' W 074°01'0 0.0
2017-Nov-12 01:56N 40°46' W 074°01'2 4.2
2017-Nov-12 01:30N 40°44' W 074°01'3 5.9
2017-Nov-12 01:01N 40°42' W 074°02'4 7.2
2017-Nov-12 00:30N 40°45' W 074°01'1 1.9
2017-Nov-12 00:00N 40°44' W 074°01'2 4.9
2017-Nov-11 23:30N 40°42' W 074°00'4 7.3
2017-Nov-11 23:00N 40°46' W 074°00'0 0.5
2017-Nov-11 22:30N 40°46' W 074°01'4 7.7
2017-Nov-11 22:00N 40°42' W 074°01'0 0.9
2017-Nov-11 21:31N 40°42' W 074°01'4 7.5
2017-Nov-11 21:00N 40°46' W 074°00'1 2.2
2017-Nov-11 20:30N 40°45' W 074°01'3 5.4
2017-Nov-11 20:00N 40°42' W 074°01'1 1.5
2017-Nov-11 19:30N 40°42' W 074°01'3 6.7
2017-Nov-11 19:00N 40°46' W 074°00'2 3.5
2017-Nov-11 18:31N 40°44' W 074°01'2 4.2
2017-Nov-11 18:00N 40°42' W 073°60'1 2.6
2017-Nov-11 17:30N 40°43' W 074°01'3 5.7
2017-Nov-11 17:00N 40°46' W 074°00'1 2.0
2017-Nov-11 16:30N 40°45' W 074°01'3 5.5
2017-Nov-11 16:00N 40°42' W 074°00'1 2.2
2017-Nov-11 15:30N 40°43' W 074°01'3 5.7
2017-Nov-11 15:00N 40°46' W 074°00'1 1.5
2017-Nov-11 14:30N 40°46' W 074°01'0 0.0
2017-Nov-10 23:30N 40°46' W 074°01'3 5.8
2017-Nov-10 23:00N 40°43' W 074°01'2 2.9
2017-Nov-10 22:29N 40°45' W 074°01'3 6.8
2017-Nov-10 22:00N 40°42' W 074°01'1 1.5
2017-Nov-10 21:30N 40°42' W 074°01'3 6.1
2017-Nov-10 21:00N 40°45' W 074°00'0 0.4
2017-Nov-10 20:30N 40°45' W 074°01'4 8.2
2017-Nov-10 20:00N 40°41' W 074°02'1 1.7
2017-Nov-10 19:30N 40°42' W 074°01'4 7.2
2017-Nov-10 19:00N 40°46' W 074°00'4 7.9
2017-Nov-10 18:30N 40°42' W 074°02'2 3.4
2017-Nov-10 17:59N 40°42' W 073°60'2 3.4
2017-Nov-10 17:30N 40°43' W 074°01'2 4.3
2017-Nov-10 17:00N 40°46' W 074°00'1 0.4
2017-Nov-10 15:06N 40°46' W 074°01'1 6.7
2017-Nov-10 15:00N 40°46' W 074°01'4 6.9
2017-Nov-10 14:30N 40°42' W 074°00'1 2.2
2017-Nov-10 14:01N 40°43' W 074°01'1 2.6
2017-Nov-10 13:31N 40°44' W 074°02'2 4.3
2017-Nov-10 13:00N 40°42' W 074°00'1 2.4
2017-Nov-10 12:30N 40°43' W 074°02'1 2.2
2017-Nov-10 12:00N 40°44' W 074°02'2 4.5
2017-Nov-10 11:30N 40°46' W 074°01'1 0.1
2017-Nov-10 00:42N 40°46' W 074°01'2 8.8
2017-Nov-10 00:30N 40°44' W 074°02'1 2.9
2017-Nov-10 00:00N 40°43' W 074°02'1 2.1
2017-Nov-09 23:30N 40°42' W 074°00'2 4.4
2017-Nov-09 23:00N 40°44' W 074°02'1 2.9
2017-Nov-09 22:30N 40°43' W 074°01'1 1.9
2017-Nov-09 22:00N 40°42' W 074°00'2 4.4
2017-Nov-09 21:30N 40°44' W 074°02'1 2.9
2017-Nov-09 21:00N 40°43' W 074°02'1 3.0
2017-Nov-09 20:31N 40°44' W 074°02'1 2.8
2017-Nov-09 20:00N 40°43' W 074°02'1 2.8
2017-Nov-09 19:31N 40°44' W 074°02'1 2.1
2017-Nov-09 19:00N 40°43' W 074°01'3 6.4
2017-Nov-09 18:30N 40°46' W 074°01'0 0.0
2017-Nov-09 18:00N 40°46' W 074°01'  
Track history (hours):
 
Tides and Currents Weather Stations Pressure Air Temp Water Temp Dewpoint Dewpoint Depression Visibility Wind Speed Wind Dir Waves Ship Positions

Abraham Lincoln

Owner: PORT IMPERIAL FERRY CORP, WEEHAWKEN, NJ. More information available from US FCC via Universal Licensing System and Coast Guard Vessel Documentation Center.

Last reported at 2017-Nov-19 17:40 UTC. Time now 2017-Nov-22 15:07 UTC.
Position N 40°46' W 074°01'.

Type: Passenger vessel. MMSI: 366990620.

Date/timePositionNaut miles runAvg speedWind from/ knotsBaromVisibWave heightAir tempDewpointWater temp
2017-Nov-19 17:40N 40°46' W 074°01'1 4.9
2017-Nov-19 17:30N 40°46' W 074°00'5 9.2
2017-Nov-19 17:00N 40°41' W 074°02'5 9.4
2017-Nov-19 16:30N 40°46' W 074°00'0 0.1
2017-Nov-19 16:00N 40°46' W 074°00'1 1.5
2017-Nov-19 15:30N 40°46' W 074°01'0 0.0
2017-Nov-18 22:47N 40°46' W 074°01'1 3.1
2017-Nov-18 22:30N 40°45' W 074°01'4 7.6
2017-Nov-18 22:00N 40°42' W 074°01'0 0.6
2017-Nov-18 21:31N 40°42' W 074°01'4 7.8
2017-Nov-18 21:00N 40°46' W 074°00'2 3.3
2017-Nov-18 20:30N 40°44' W 074°01'2 4.5
2017-Nov-18 20:00N 40°42' W 074°00'1 1.6
2017-Nov-18 19:30N 40°42' W 074°02'4 7.2
2017-Nov-18 19:00N 40°46' W 074°00'4 8.0
2017-Nov-18 18:30N 40°42' W 074°02'2 3.8
2017-Nov-18 18:00N 40°42' W 073°60'1 2.5
2017-Nov-18 17:30N 40°43' W 074°01'3 5.4
2017-Nov-18 17:00N 40°46' W 074°00'1 2.7
2017-Nov-18 16:30N 40°44' W 074°01'2 4.8
2017-Nov-18 16:00N 40°42' W 073°60'1 2.9
2017-Nov-18 15:30N 40°43' W 074°01'3 5.9
2017-Nov-18 15:00N 40°46' W 074°00'1 1.6
2017-Nov-18 14:30N 40°46' W 074°01'0 0.0
2017-Nov-17 23:33N 40°46' W 074°01'0 0.0
2017-Nov-17 23:30N 40°46' W 074°01'3 6.8
2017-Nov-17 23:01N 40°43' W 074°01'2 3.5
2017-Nov-17 22:30N 40°45' W 074°01'3 6.0
2017-Nov-17 22:00N 40°42' W 074°01'0 1.0
2017-Nov-17 21:30N 40°42' W 074°01'3 6.9
2017-Nov-17 21:00N 40°46' W 074°00'1 2.4
2017-Nov-17 20:30N 40°45' W 074°01'3 6.5
2017-Nov-17 20:00N 40°41' W 074°02'1 2.8
2017-Nov-17 19:31N 40°43' W 074°01'3 5.9
2017-Nov-17 19:00N 40°46' W 074°00'2 3.7
2017-Nov-17 18:30N 40°44' W 074°01'2 4.1
2017-Nov-17 18:00N 40°42' W 074°00'1 2.2
2017-Nov-17 17:30N 40°43' W 074°01'3 5.6
2017-Nov-17 17:00N 40°46' W 074°00'1 1.5
2017-Nov-17 16:30N 40°45' W 074°01'3 6.8
2017-Nov-17 16:00N 40°42' W 074°01'2 3.7
2017-Nov-17 15:30N 40°44' W 074°01'2 4.2
2017-Nov-17 15:00N 40°46' W 074°00'1 2.0
2017-Nov-17 14:30N 40°47' W 074°01'1 1.9
2017-Nov-17 14:00N 40°46' W 074°00'1 1.9
2017-Nov-17 13:30N 40°47' W 074°01'1 2.0
2017-Nov-17 13:00N 40°46' W 074°00'1 1.9
2017-Nov-17 12:30N 40°47' W 074°01'1 2.0
2017-Nov-17 12:00N 40°46' W 074°00'0 0.0
2017-Nov-17 11:30N 40°46' W 074°00'1 2.0
2017-Nov-17 11:00N 40°47' W 074°01'0 0.0
2017-Nov-17 00:52N 40°47' W 074°01'0 0.0
2017-Nov-17 00:29N 40°47' W 074°01'1 2.0
2017-Nov-17 00:00N 40°46' W 074°00'1 1.9
2017-Nov-16 23:30N 40°47' W 074°01'1 1.9
2017-Nov-16 23:00N 40°46' W 074°00'1 1.9
2017-Nov-16 22:30N 40°47' W 074°01'1 1.9
2017-Nov-16 22:00N 40°46' W 074°00'1 1.9
2017-Nov-16 21:30N 40°47' W 074°01'0 0.0
2017-Nov-16 14:46N 40°47' W 074°01'0 0.0
2017-Nov-16 14:30N 40°47' W 074°01'1 2.0
2017-Nov-16 14:00N 40°46' W 074°00'1 1.9
2017-Nov-16 13:30N 40°47' W 074°01'1 1.9
2017-Nov-16 13:00N 40°46' W 074°00'1 2.0
2017-Nov-16 12:30N 40°47' W 074°01'1 2.0
2017-Nov-16 12:00N 40°46' W 074°00'0 0.0
2017-Nov-16 11:30N 40°46' W 074°00'1 2.0
2017-Nov-16 11:00N 40°47' W 074°01'0 0.0
2017-Nov-16 10:30N 40°47' W 074°01'0 0.0
2017-Nov-16 10:00N 40°47' W 074°01'0 0.0
2017-Nov-16 00:49N 40°47' W 074°01'0 0.0
2017-Nov-16 00:30N 40°47' W 074°01'1 2.0
2017-Nov-16 00:00N 40°46' W 074°00'1 1.9
2017-Nov-15 23:30N 40°47' W 074°01'1 1.9
2017-Nov-15 23:00N 40°46' W 074°00'1 1.9
2017-Nov-15 22:30N 40°47' W 074°01'1 1.9
2017-Nov-15 22:00N 40°46' W 074°00'1 1.9
2017-Nov-15 21:31N 40°47' W 074°01'0 0.0
2017-Nov-15 15:46N 40°47' W 074°01'0 1.3
2017-Nov-15 15:30N 40°46' W 074°01'0 0.0
2017-Nov-15 15:00N 40°46' W 074°01'0 0.7
2017-Nov-15 14:30N 40°47' W 074°01'1 1.9
2017-Nov-15 14:00N 40°46' W 074°00'1 2.0
2017-Nov-15 13:30N 40°47' W 074°01'1 1.9
2017-Nov-15 13:00N 40°46' W 074°00'1 1.9
2017-Nov-15 12:30N 40°47' W 074°01'1 1.9
2017-Nov-15 12:00N 40°46' W 074°00'0 0.1
2017-Nov-15 11:30N 40°46' W 074°00'1 1.9
2017-Nov-15 11:00N 40°47' W 074°01'0 0.0
2017-Nov-15 10:30N 40°47' W 074°01'0 0.0
2017-Nov-15 10:00N 40°47' W 074°01'0 0.0
2017-Nov-15 09:30N 40°47' W 074°01'0 0.0
2017-Nov-15 08:59N 40°47' W 074°01'0 0.0
2017-Nov-15 00:51N 40°47' W 074°01'0 0.0
2017-Nov-15 00:30N 40°47' W 074°01'1 1.9
2017-Nov-15 00:00N 40°46' W 074°00'1 1.9
2017-Nov-14 23:30N 40°47' W 074°01'1 2.0
2017-Nov-14 23:00N 40°46' W 074°00'1 1.9
2017-Nov-14 22:30N 40°47' W 074°01'1 2.0
2017-Nov-14 22:00N 40°46' W 074°00'1 1.9
2017-Nov-14 21:30N 40°47' W 074°01'0 0.0
2017-Nov-14 14:45N 40°47' W 074°01'0 0.0
2017-Nov-14 14:30N 40°47' W 074°01'1 1.9
2017-Nov-14 14:00N 40°46' W 074°00'1 2.0
2017-Nov-14 13:30N 40°47' W 074°01'1 1.9
2017-Nov-14 13:01N 40°46' W 074°00'1 1.9
2017-Nov-14 12:30N 40°47' W 074°01'1 1.9
2017-Nov-14 12:00N 40°46' W 074°00'0 0.0
2017-Nov-14 11:30N 40°46' W 074°00'1 1.9
2017-Nov-14 11:00N 40°47' W 074°01'0 0.0
2017-Nov-14 10:30N 40°47' W 074°01'0 0.0
2017-Nov-14 10:00N 40°47' W 074°01'0 0.0
2017-Nov-14 09:30N 40°47' W 074°01'0 0.0
2017-Nov-14 09:00N 40°47' W 074°01'0 0.0
2017-Nov-14 00:52N 40°47' W 074°01'0 0.0
2017-Nov-14 00:30N 40°47' W 074°01'1 1.9
2017-Nov-14 00:00N 40°46' W 074°00'1 1.9
2017-Nov-13 23:29N 40°47' W 074°01'1 2.0
2017-Nov-13 23:00N 40°46' W 074°00'1 1.9
2017-Nov-13 22:30N 40°47' W 074°01'1 1.9
2017-Nov-13 22:00N 40°46' W 074°00'1 0.0
2017-Nov-12 22:48N 40°46' W 074°01'1 3.3
2017-Nov-12 22:30N 40°45' W 074°01'4 7.2
2017-Nov-12 22:00N 40°42' W 074°01'0 0.4
2017-Nov-12 21:30N 40°42' W 074°01'4 7.6
2017-Nov-12 21:00N 40°46' W 074°00'1 2.8
2017-Nov-12 20:30N 40°44' W 074°01'2 4.5
2017-Nov-12 19:59N 40°42' W 073°60'1 3.0
2017-Nov-12 19:30N 40°43' W 074°01'3 6.0
2017-Nov-12 19:00N 40°46' W 074°00'3 5.9
2017-Nov-12 18:31N 40°43' W 074°02'2 3.0
2017-Nov-12 18:01N 40°42' W 073°60'1 2.4
2017-Nov-12 17:30N 40°43' W 074°01'3 5.4
2017-Nov-12 17:00N 40°46' W 074°00'4 7.4
2017-Nov-12 16:30N 40°42' W 074°02'2 3.0
2017-Nov-12 16:00N 40°42' W 073°60'1 2.5
2017-Nov-12 15:30N 40°43' W 074°01'3 5.3
2017-Nov-12 15:00N 40°46' W 074°00'1 1.5
2017-Nov-12 14:29N 40°46' W 074°01'0 0.0
2017-Nov-12 01:56N 40°46' W 074°01'2 4.2
2017-Nov-12 01:30N 40°44' W 074°01'3 5.9
2017-Nov-12 01:01N 40°42' W 074°02'4 7.2
2017-Nov-12 00:30N 40°45' W 074°01'1 1.9
2017-Nov-12 00:00N 40°44' W 074°01'2 4.9
2017-Nov-11 23:30N 40°42' W 074°00'4 7.3
2017-Nov-11 23:00N 40°46' W 074°00'0 0.5
2017-Nov-11 22:30N 40°46' W 074°01'4 7.7
2017-Nov-11 22:00N 40°42' W 074°01'0 0.9
2017-Nov-11 21:31N 40°42' W 074°01'4 7.5
2017-Nov-11 21:00N 40°46' W 074°00'1 2.2
2017-Nov-11 20:30N 40°45' W 074°01'3 5.4
2017-Nov-11 20:00N 40°42' W 074°01'1 1.5
2017-Nov-11 19:30N 40°42' W 074°01'3 6.7
2017-Nov-11 19:00N 40°46' W 074°00'2 3.5
2017-Nov-11 18:31N 40°44' W 074°01'2 4.2
2017-Nov-11 18:00N 40°42' W 073°60'1 2.6
2017-Nov-11 17:30N 40°43' W 074°01'3 5.7
2017-Nov-11 17:00N 40°46' W 074°00'1 2.0
2017-Nov-11 16:30N 40°45' W 074°01'3 5.5
2017-Nov-11 16:00N 40°42' W 074°00'1 2.2
2017-Nov-11 15:30N 40°43' W 074°01'3 5.7
2017-Nov-11 15:00N 40°46' W 074°00'1 1.5
2017-Nov-11 14:30N 40°46' W 074°01'0 0.0
2017-Nov-10 23:30N 40°46' W 074°01'3 5.8
2017-Nov-10 23:00N 40°43' W 074°01'2 2.9
2017-Nov-10 22:29N 40°45' W 074°01'3 6.8
2017-Nov-10 22:00N 40°42' W 074°01'1 1.5
2017-Nov-10 21:30N 40°42' W 074°01'3 6.1
2017-Nov-10 21:00N 40°45' W 074°00'0 0.4
2017-Nov-10 20:30N 40°45' W 074°01'4 8.2
2017-Nov-10 20:00N 40°41' W 074°02'1 1.7
2017-Nov-10 19:30N 40°42' W 074°01'4 7.2
2017-Nov-10 19:00N 40°46' W 074°00'4 7.9
2017-Nov-10 18:30N 40°42' W 074°02'2 3.4
2017-Nov-10 17:59N 40°42' W 073°60'2 3.4
2017-Nov-10 17:30N 40°43' W 074°01'2 4.3
2017-Nov-10 17:00N 40°46' W 074°00'1 0.4
2017-Nov-10 15:06N 40°46' W 074°01'1 6.7
2017-Nov-10 15:00N 40°46' W 074°01'4 6.9
2017-Nov-10 14:30N 40°42' W 074°00'1 2.2
2017-Nov-10 14:01N 40°43' W 074°01'1 2.6
2017-Nov-10 13:31N 40°44' W 074°02'2 4.3
2017-Nov-10 13:00N 40°42' W 074°00'1 2.4
2017-Nov-10 12:30N 40°43' W 074°02'1 2.2
2017-Nov-10 12:00N 40°44' W 074°02'2 4.5
2017-Nov-10 11:30N 40°46' W 074°01'1 0.1
2017-Nov-10 00:42N 40°46' W 074°01'2 8.8
2017-Nov-10 00:30N 40°44' W 074°02'1 2.9
2017-Nov-10 00:00N 40°43' W 074°02'1 2.1
2017-Nov-09 23:30N 40°42' W 074°00'2 4.4
2017-Nov-09 23:00N 40°44' W 074°02'1 2.9
2017-Nov-09 22:30N 40°43' W 074°01'1 1.9
2017-Nov-09 22:00N 40°42' W 074°00'2 4.4
2017-Nov-09 21:30N 40°44' W 074°02'1 2.9
2017-Nov-09 21:00N 40°43' W 074°02'1 3.0
2017-Nov-09 20:31N 40°44' W 074°02'1 2.8
2017-Nov-09 20:00N 40°43' W 074°02'1 2.8
2017-Nov-09 19:31N 40°44' W 074°02'1 2.1
2017-Nov-09 19:00N 40°43' W 074°01'3 6.4
2017-Nov-09 18:30N 40°46' W 074°01'0 0.0
2017-Nov-09 18:00N 40°46' W 074°01'  

Dump ship's entire track history